XML Sitemap

This is a XML Sitemap which is supposed to be processed by search engines which follow the XML Sitemap standard like Ask.com, Bing, Google and Yahoo.
It was generated using the WordPress content management system and the Google Sitemap Generator Plugin by Arne Brachhold.
You can find more information about XML sitemaps on sitemaps.org and Google's list of sitemap programs.

URLPriorityChange frequencyLast modified (GMT)
https://explorersweb.com/2017/02/27/this-week-2017-02-27-25822/60%Weekly2017-02-27 02:10
https://explorersweb.com/2017/02/27/too-much-weight-for-the-north-pole-plane-skiers-in-resolute-bay-2017-02-27-23424/60%Weekly2017-02-27 01:30
https://explorersweb.com/2017/02/25/txikon-back-to-everest-by-helicopterp-2017-02-25-42116/60%Weekly2017-02-25 06:41
https://explorersweb.com/2017/02/25/pete-casey-debrief-light-at-the-end-of-the-jungle-2017-02-25-41598/60%Weekly2018-04-17 18:37
https://explorersweb.com/2017/02/23/dixie-dansercoer-north-pole-gear-and-antarctica-kiting-2017-02-23-27853/60%Weekly2017-02-23 02:44
https://explorersweb.com/2017/02/23/seven-sisters-multiple-earth-like-planets-orbiting-one-sun-2017-02-22-59487/60%Weekly2017-02-22 11:31
https://explorersweb.com/2017/02/22/wheelchairtrip-through-mountains-jungles-and-swamps-part-4-2017-02-21-65189/60%Weekly2018-04-17 18:14
https://explorersweb.com/2017/02/21/north-pole-interview-with-sky-the-dog-quotthings-might-get-bloodyquot-2017-02-20-67652/60%Weekly2017-02-20 13:47
https://explorersweb.com/2017/02/20/pm-editorial-passion-alpinism-and-risks-2017-02-19-59627/60%Weekly2017-02-19 11:33
https://explorersweb.com/2017/02/20/who-is-sea-kayaking-adventurer-olly-hicksp-2017-02-19-59363/60%Weekly2017-02-19 11:29
https://explorersweb.com/2017/02/20/alex-txikon-confirms-that-the-everest-winter-expedition-continues-2017-02-19-59149/60%Weekly2017-02-19 11:25
https://explorersweb.com/2017/02/19/this-week-on-pythom-2017-02-19-56590/60%Weekly2017-02-19 10:43
https://explorersweb.com/2017/02/18/tlgm-new-satellite-image-of-the-arctic-sea-2017-02-17-57857/60%Weekly2017-02-17 11:04
https://explorersweb.com/2017/02/16/bill-burke-back-to-the-mountain-interview-2017-02-16-35227/60%Weekly2017-02-16 04:47
https://explorersweb.com/2017/02/15/winter-everest-first-summit-push-debrief-team-waiting-for-another-weather-window-2017-02-15-33756/60%Weekly2017-02-15 04:22
https://explorersweb.com/2017/02/15/everest-winter-details-from-latest-summit-push-quotletx27s-see-what-happens-nextquot-2017-02-15-29603/60%Weekly2017-02-15 03:13
https://explorersweb.com/2017/02/15/the-shackleton-award-2017-was-awarded-johanna-davidsson-2017-02-15-18299/60%Weekly2017-02-15 00:04
https://explorersweb.com/2017/02/15/north-pole-interview-martin-murray-2017-02-15-9513/60%Weekly2017-02-14 21:38
https://explorersweb.com/2017/02/13/editorial-no-escaping-facebook-2017-02-13-55202/60%Weekly2017-02-13 10:20
https://explorersweb.com/2017/02/13/winter-everest-summit-bid-strong-wind-forces-climbers-to-turn-back-from-c4-not-over-yet-2017-02-13-24815/60%Weekly2017-02-13 01:53
https://explorersweb.com/2017/02/10/winter-everest-summit-push-launched-txikon-sherpa-in-c2-2017-02-10-11510/60%Weekly2017-02-09 22:11
https://explorersweb.com/2017/02/10/should-outdoor-and-mountaineering-writers-talk-about-politicspp-2017-02-09-59154/60%Weekly2017-02-09 11:25
https://explorersweb.com/2017/02/10/txikon-sets-off-on-everest-summit-push-2017-02-09-58440/60%Weekly2017-02-09 11:14
https://explorersweb.com/2017/02/09/this-week-on-pythom-2017-02-09-57249/60%Weekly2017-02-09 10:54
https://explorersweb.com/2017/02/09/the-sea-stacks-of-donegal-ireland-2017-02-08-59579/60%Weekly2017-02-08 11:32
https://explorersweb.com/2017/02/08/mike-horn-completed-antarctica-traverse-2017-02-08-30928/60%Weekly2017-02-08 03:35
https://explorersweb.com/2017/02/08/1980-amazon-river-expedition-2017-with-hawaiian-outrigger-canoes-2017-02-07-69045/60%Weekly2017-02-07 14:10
https://explorersweb.com/2017/02/07/interview-sebastian-copeland-north-pole-attempt-despite-grave-notes-2017-02-07-50444/60%Weekly2017-02-07 09:00
https://explorersweb.com/2017/02/06/manaslu-winter-elisabeth-revolx27s-debrief-2017-02-06-34208/60%Weekly2017-02-06 04:30
https://explorersweb.com/2017/02/06/winter-everest-txikon-debriefs-camp-4-ascent-2017-02-06-31819/60%Weekly2017-02-06 03:50
https://explorersweb.com/2017/02/06/nepal-fake-summit-turns-expensive-for-indian-couple-and-their-outfitter-2017-02-06-29341/60%Weekly2017-02-06 03:09
https://explorersweb.com/2017/02/06/mars-madness-pythom-space-in-the-news-2017-02-06-26403/60%Weekly2017-02-06 02:20
https://explorersweb.com/2017/02/03/antarctic-ocean-2-sailboats-amp-3-kayaks-2017-02-03-33729/60%Weekly2017-02-03 04:22
https://explorersweb.com/2017/02/03/editorial-modern-oracles-present-day-heresy-and-ancient-global-warmings-2017-02-02-57697/60%Weekly2017-02-02 11:01
https://explorersweb.com/2017/02/02/horrell-tilman-and-shiptons-travels-in-africap-2017-02-01-73602/60%Weekly2017-02-01 15:26
https://explorersweb.com/2017/02/01/mike-horn-last-skier-on-antarctica-2017-02-01-42778/60%Weekly2017-02-01 06:52